createdAt,value
2022-08-27T00:00:37.700Z,23.83
2022-08-27T00:03:09.088Z,18.50
2022-08-27T00:05:41.213Z,23.08
2022-08-27T00:08:13.569Z,26.00
2022-08-27T00:10:45.008Z,18.98
2022-08-27T00:13:16.505Z,26.23
2022-08-27T00:15:48.209Z,22.02
2022-08-27T00:18:22.803Z,22.38
2022-08-27T00:20:54.348Z,19.33
2022-08-27T00:23:25.762Z,24.38
2022-08-27T00:25:59.221Z,20.10
2022-08-27T00:28:31.927Z,18.63
2022-08-27T00:31:03.570Z,19.60
2022-08-27T00:33:36.753Z,24.00
2022-08-27T00:36:09.233Z,20.67
2022-08-27T00:38:41.835Z,19.83
2022-08-27T00:41:13.595Z,20.70
2022-08-27T00:43:58.255Z,19.75
2022-08-27T00:46:49.663Z,14.05
2022-08-27T00:49:26.392Z,22.00
2022-08-27T00:52:08.469Z,19.60
2022-08-27T00:54:39.841Z,20.77
2022-08-27T00:57:13.758Z,19.17
2022-08-27T00:59:45.464Z,24.33
2022-08-27T01:02:19.732Z,19.40
2022-08-27T01:04:56.120Z,16.30
2022-08-27T01:07:30.992Z,17.50
2022-08-27T01:10:07.152Z,23.47
2022-08-27T01:12:38.791Z,18.38
2022-08-27T01:15:16.917Z,17.38
2022-08-27T01:17:52.526Z,14.68
2022-08-27T01:20:48.989Z,17.42
2022-08-27T01:23:38.662Z,15.35
2022-08-27T01:26:14.648Z,11.82
2022-08-27T01:28:48.310Z,12.80
2022-08-27T01:31:20.223Z,21.67
2022-08-27T01:34:03.169Z,17.92
2022-08-27T01:36:34.540Z,15.93
2022-08-27T01:39:06.162Z,14.82
2022-08-27T01:41:37.543Z,17.50
2022-08-27T01:44:08.941Z,12.52
2022-08-27T01:46:40.579Z,21.67
2022-08-27T01:49:12.012Z,14.32
2022-08-27T01:51:43.636Z,16.08
2022-08-27T01:54:15.092Z,20.42
2022-08-27T01:56:46.685Z,22.00
2022-08-27T01:59:18.164Z,16.48
2022-08-27T02:01:50.315Z,12.00
2022-08-27T02:04:22.374Z,16.00
2022-08-27T02:06:54.578Z,17.17
2022-08-27T02:09:26.281Z,18.70
2022-08-27T02:11:57.900Z,14.13
2022-08-27T02:14:29.801Z,10.93
2022-08-27T02:17:01.650Z,21.38
2022-08-27T02:19:33.062Z,15.02
2022-08-27T02:22:04.553Z,9.88
2022-08-27T02:24:35.893Z,14.93
2022-08-27T02:27:07.876Z,14.15
2022-08-27T02:29:39.436Z,10.30
2022-08-27T02:32:23.879Z,16.20
2022-08-27T02:35:04.468Z,17.05
2022-08-27T02:37:37.884Z,19.17
2022-08-27T02:40:11.131Z,10.55
2022-08-27T02:42:43.792Z,14.30
2022-08-27T02:45:16.258Z,13.10
2022-08-27T02:47:48.470Z,16.98
2022-08-27T02:50:19.891Z,15.10
2022-08-27T02:52:51.264Z,14.20
2022-08-27T02:55:22.929Z,13.50
2022-08-27T02:57:54.864Z,20.15
2022-08-27T03:00:28.616Z,17.98
2022-08-27T03:03:01.133Z,17.20
2022-08-27T03:05:32.580Z,23.05
2022-08-27T03:08:05.518Z,18.02
2022-08-27T03:10:36.897Z,16.20
2022-08-27T03:13:09.021Z,21.23
2022-08-27T03:15:40.391Z,19.67
2022-08-27T03:18:21.531Z,17.80
2022-08-27T03:20:55.601Z,14.50
2022-08-27T03:23:29.470Z,15.15
2022-08-27T03:26:09.473Z,13.98
2022-08-27T03:28:40.945Z,15.75
2022-08-27T03:31:20.553Z,15.05
2022-08-27T03:33:56.696Z,20.88
2022-08-27T03:36:29.911Z,13.73
2022-08-27T03:39:01.374Z,22.02
2022-08-27T03:41:53.994Z,16.63
2022-08-27T03:44:24.414Z,17.83
2022-08-27T03:46:55.790Z,20.17
2022-08-27T03:49:27.117Z,19.92
2022-08-27T03:51:58.826Z,20.80
2022-08-27T03:54:31.673Z,26.58
2022-08-27T03:57:03.753Z,23.45
2022-08-27T03:59:35.915Z,16.98
2022-08-27T04:02:07.357Z,19.35
2022-08-27T04:04:38.953Z,21.75
2022-08-27T04:07:10.519Z,25.92
2022-08-27T04:09:42.427Z,24.02
2022-08-27T04:12:13.817Z,18.35
2022-08-27T04:14:45.372Z,22.58
2022-08-27T04:17:16.819Z,19.90
2022-08-27T04:19:48.325Z,22.08
2022-08-27T04:22:20.428Z,16.05
2022-08-27T04:24:51.782Z,25.42
2022-08-27T04:27:25.518Z,20.80
2022-08-27T04:29:58.393Z,21.75
2022-08-27T04:32:29.988Z,24.85
2022-08-27T04:35:01.516Z,25.27
2022-08-27T04:37:33.297Z,26.33
2022-08-27T04:40:05.036Z,21.05
2022-08-27T04:42:36.521Z,27.08
2022-08-27T04:45:08.486Z,19.58
2022-08-27T04:47:39.954Z,17.30
2022-08-27T04:50:11.351Z,17.60
2022-08-27T04:52:44.747Z,21.20
2022-08-27T04:55:16.199Z,19.48
2022-08-27T04:57:47.611Z,19.95
2022-08-27T05:00:19.248Z,18.42
2022-08-27T05:02:50.622Z,15.77
2022-08-27T05:05:23.635Z,13.95
2022-08-27T05:07:55.063Z,16.55
2022-08-27T05:10:26.427Z,19.40
2022-08-27T05:12:59.916Z,17.92
2022-08-27T05:15:31.576Z,22.55
2022-08-27T05:18:04.321Z,17.02
2022-08-27T05:20:46.670Z,16.92
2022-08-27T05:23:20.627Z,16.20
2022-08-27T05:25:53.865Z,19.15
2022-08-27T05:28:28.482Z,19.83
2022-08-27T05:31:06.824Z,17.75
2022-08-27T05:33:40.516Z,19.45
2022-08-27T05:36:21.654Z,13.35
2022-08-27T05:38:55.449Z,21.05
2022-08-27T05:41:34.240Z,28.77
2022-08-27T05:44:30.277Z,20.25
2022-08-27T05:47:00.755Z,15.50
2022-08-27T05:49:32.386Z,14.90
2022-08-27T05:52:08.218Z,13.45
2022-08-27T05:54:39.929Z,13.43
2022-08-27T05:57:11.446Z,13.75
2022-08-27T06:00:01.647Z,11.38
2022-08-27T06:02:37.146Z,16.15
2022-08-27T06:05:08.767Z,12.75
2022-08-27T06:07:40.185Z,14.93
2022-08-27T06:10:12.024Z,11.65
2022-08-27T06:12:43.395Z,18.75
2022-08-27T06:15:15.035Z,15.73
2022-08-27T06:17:46.374Z,12.35
2022-08-27T06:20:18.413Z,7.97
2022-08-27T06:22:49.893Z,7.75
2022-08-27T06:25:21.238Z,11.00
2022-08-27T06:27:52.640Z,5.65
2022-08-27T06:30:24.112Z,13.93
2022-08-27T06:32:55.562Z,11.18
2022-08-27T06:35:29.275Z,12.60
2022-08-27T06:38:02.555Z,8.23
2022-08-27T06:40:34.693Z,9.20
2022-08-27T06:43:06.279Z,8.13
2022-08-27T06:45:39.132Z,7.00
2022-08-27T06:48:10.616Z,7.53
2022-08-27T06:50:43.534Z,7.72
2022-08-27T06:53:15.058Z,8.00
2022-08-27T06:55:48.556Z,8.00
2022-08-27T06:58:20.258Z,6.43
2022-08-27T07:00:51.704Z,7.22
2022-08-27T07:03:23.103Z,9.60
2022-08-27T07:05:54.631Z,6.72
2022-08-27T07:08:26.098Z,8.30
2022-08-27T07:10:57.663Z,7.13
2022-08-27T07:13:30.076Z,11.00
2022-08-27T07:16:23.411Z,7.40
2022-08-27T07:18:59.457Z,4.80
2022-08-27T07:21:35.997Z,5.28
2022-08-27T07:24:09.001Z,7.65
2022-08-27T07:26:43.297Z,8.52
2022-08-27T07:29:15.258Z,6.03
2022-08-27T07:31:46.956Z,6.38
2022-08-27T07:34:18.314Z,7.90
2022-08-27T07:36:51.282Z,7.03
2022-08-27T07:39:22.607Z,8.35
2022-08-27T07:42:15.375Z,6.47
2022-08-27T07:44:46.784Z,10.32
2022-08-27T07:47:18.489Z,9.57
2022-08-27T07:49:50.149Z,8.02
2022-08-27T07:52:25.915Z,10.27
2022-08-27T07:54:58.289Z,8.73
2022-08-27T07:57:31.655Z,9.70
2022-08-27T08:00:04.800Z,8.80
2022-08-27T08:02:37.255Z,6.70
2022-08-27T08:05:09.969Z,9.07
2022-08-27T08:07:41.484Z,11.23
2022-08-27T08:10:12.992Z,10.02
2022-08-27T08:12:44.347Z,4.53
2022-08-27T08:15:17.313Z,9.60
2022-08-27T08:17:48.674Z,6.93
2022-08-27T08:20:31.256Z,7.35
2022-08-27T08:23:11.498Z,6.60
2022-08-27T08:25:42.965Z,8.05
2022-08-27T08:28:14.362Z,6.75
2022-08-27T08:30:47.631Z,7.63
2022-08-27T08:33:19.073Z,7.70
2022-08-27T08:35:50.553Z,9.10
2022-08-27T08:38:22.062Z,6.97
2022-08-27T08:40:55.276Z,4.97
2022-08-27T08:43:36.438Z,9.40
2022-08-27T08:46:17.186Z,8.27
2022-08-27T08:48:55.396Z,8.82
2022-08-27T08:51:32.726Z,7.38
2022-08-27T08:54:10.710Z,6.07
2022-08-27T08:57:01.093Z,9.38
2022-08-27T08:59:39.184Z,7.97
2022-08-27T09:02:14.534Z,7.35
2022-08-27T09:04:45.887Z,9.35
2022-08-27T09:07:34.456Z,7.15
2022-08-27T09:10:27.014Z,7.65
2022-08-27T09:13:07.998Z,9.68
2022-08-27T09:15:39.648Z,7.50
2022-08-27T09:18:14.749Z,9.07
2022-08-27T09:20:51.349Z,12.13
2022-08-27T09:23:31.016Z,6.85
2022-08-27T09:26:02.437Z,9.38
2022-08-27T09:28:52.604Z,11.90
2022-08-27T09:31:24.023Z,9.68
2022-08-27T09:33:57.219Z,11.38
2022-08-27T09:36:28.717Z,10.82
2022-08-27T09:39:04.223Z,11.32
2022-08-27T09:41:42.834Z,8.98
2022-08-27T09:44:18.624Z,10.05
2022-08-27T09:47:00.381Z,10.90
2022-08-27T09:49:36.593Z,16.17
2022-08-27T09:52:10.023Z,14.63
2022-08-27T09:54:46.498Z,20.83
2022-08-27T09:57:38.075Z,15.13
2022-08-27T10:00:16.131Z,14.35
2022-08-27T10:02:53.372Z,17.60
2022-08-27T10:05:32.160Z,17.08
2022-08-27T10:08:21.923Z,13.45
2022-08-27T10:11:00.756Z,11.63
2022-08-27T10:13:39.406Z,14.80
2022-08-27T10:16:52.350Z,12.80
2022-08-27T10:19:46.862Z,12.98
2022-08-27T10:22:31.903Z,14.52
2022-08-27T10:25:28.858Z,16.20
2022-08-27T10:28:36.756Z,12.63
2022-08-27T10:31:26.423Z,13.13
2022-08-27T10:34:21.030Z,13.85
2022-08-27T10:37:19.960Z,16.08
2022-08-27T10:40:04.472Z,11.63
2022-08-27T10:42:43.889Z,14.82
2022-08-27T10:45:39.344Z,16.90
2022-08-27T10:48:19.462Z,12.02
2022-08-27T10:51:08.887Z,14.60
2022-08-27T10:53:50.202Z,13.23
2022-08-27T10:57:03.637Z,16.30
2022-08-27T10:59:56.153Z,13.95
2022-08-27T11:02:37.266Z,10.77
2022-08-27T11:05:19.750Z,9.70
2022-08-27T11:08:05.149Z,14.18
2022-08-27T11:10:42.136Z,11.13
2022-08-27T11:13:22.148Z,11.35
2022-08-27T11:15:56.569Z,9.43
2022-08-27T11:18:42.426Z,10.32
2022-08-27T11:21:36.608Z,11.02
2022-08-27T11:24:33.103Z,11.68
2022-08-27T11:27:08.047Z,11.15
2022-08-27T11:29:49.562Z,11.95
2022-08-27T11:32:27.647Z,19.08
2022-08-27T11:35:19.778Z,14.40
2022-08-27T11:38:03.272Z,20.08
2022-08-27T11:40:55.435Z,13.45
2022-08-27T11:43:33.367Z,10.98
2022-08-27T11:46:08.529Z,13.65
2022-08-27T11:48:43.296Z,13.23
2022-08-27T11:51:34.052Z,11.57
2022-08-27T11:54:44.219Z,14.50
2022-08-27T11:57:39.177Z,11.52
2022-08-27T12:00:18.822Z,13.52
2022-08-27T12:02:58.970Z,9.75
2022-08-27T12:05:45.477Z,11.32
2022-08-27T12:08:22.737Z,8.73
2022-08-27T12:11:03.659Z,7.72
2022-08-27T12:13:50.540Z,9.90
2022-08-27T12:16:40.740Z,7.63
2022-08-27T12:19:33.177Z,7.20
2022-08-27T12:22:26.063Z,6.38
2022-08-27T12:24:59.000Z,8.82
2022-08-27T12:27:34.342Z,7.32
2022-08-27T12:30:21.030Z,12.18
2022-08-27T12:32:54.363Z,7.97
2022-08-27T12:35:32.569Z,10.40
2022-08-27T12:38:16.264Z,7.88
2022-08-27T12:40:53.947Z,3.45
2022-08-27T12:43:28.281Z,9.95
2022-08-27T12:46:19.231Z,7.40
2022-08-27T12:48:57.934Z,10.52
2022-08-27T12:51:37.981Z,6.85
2022-08-27T12:54:51.461Z,9.18
2022-08-27T12:57:36.767Z,5.65
2022-08-27T13:00:26.351Z,6.80
2022-08-27T13:03:16.642Z,5.53
2022-08-27T13:05:50.441Z,8.73
2022-08-27T13:08:28.300Z,7.22
2022-08-27T13:11:30.917Z,5.80
2022-08-27T13:14:19.868Z,8.70
2022-08-27T13:16:59.354Z,8.45
2022-08-27T13:19:34.190Z,6.97
2022-08-27T13:22:07.042Z,7.22
2022-08-27T13:24:47.844Z,6.82
2022-08-27T13:27:31.597Z,6.90
2022-08-27T13:30:10.946Z,6.40
2022-08-27T13:32:50.744Z,6.63
2022-08-27T13:35:23.072Z,6.07
2022-08-27T13:37:55.688Z,7.07
2022-08-27T13:40:34.435Z,7.28
2022-08-27T13:43:12.072Z,8.45
2022-08-27T13:45:49.576Z,4.18
2022-08-27T13:48:22.405Z,5.72
2022-08-27T13:50:57.576Z,5.95
2022-08-27T13:53:50.289Z,6.88
2022-08-27T13:56:27.614Z,5.75
2022-08-27T13:59:19.124Z,5.57
2022-08-27T14:02:10.969Z,8.15
2022-08-27T14:05:27.967Z,11.00
2022-08-27T14:08:13.731Z,8.20
2022-08-27T14:10:49.794Z,4.90
2022-08-27T14:13:24.016Z,6.07
2022-08-27T14:15:57.614Z,6.45
2022-08-27T14:18:57.237Z,5.32
2022-08-27T14:21:24.158Z,9.77
2022-08-27T14:23:56.176Z,7.70
2022-08-27T14:26:27.807Z,9.40
2022-08-27T14:28:59.221Z,6.55
2022-08-27T14:31:31.223Z,10.48
2022-08-27T14:34:02.732Z,4.93
2022-08-27T14:36:37.152Z,9.00
2022-08-27T14:39:10.190Z,7.37
2022-08-27T14:41:41.641Z,6.28
2022-08-27T14:44:13.404Z,5.63
2022-08-27T14:46:44.812Z,5.85
2022-08-27T14:49:30.469Z,7.45
2022-08-27T14:52:04.177Z,6.15
2022-08-27T14:54:37.212Z,7.88
2022-08-27T14:57:09.006Z,6.03
2022-08-27T14:59:40.399Z,8.63
2022-08-27T15:02:13.883Z,4.25
2022-08-27T15:04:47.842Z,7.00
2022-08-27T15:07:19.836Z,5.53
2022-08-27T15:09:55.327Z,8.87
2022-08-27T15:12:27.128Z,5.07
2022-08-27T15:14:58.631Z,5.85
2022-08-27T15:17:34.357Z,5.00
2022-08-27T15:20:10.265Z,6.97
2022-08-27T15:22:52.181Z,10.60
2022-08-27T15:25:23.601Z,5.38
2022-08-27T15:27:54.985Z,7.70
2022-08-27T15:30:28.833Z,5.45
2022-08-27T15:33:00.178Z,7.93
2022-08-27T15:35:31.617Z,6.97
2022-08-27T15:38:03.209Z,6.25
2022-08-27T15:40:36.357Z,5.32
2022-08-27T15:43:08.208Z,6.30
2022-08-27T15:45:39.558Z,7.15
2022-08-27T15:48:11.034Z,8.65
2022-08-27T15:50:43.118Z,4.88
2022-08-27T15:53:14.846Z,6.53
2022-08-27T15:55:46.179Z,3.58
2022-08-27T15:58:17.508Z,3.72
2022-08-27T16:00:48.956Z,7.28
2022-08-27T16:03:35.767Z,6.40
2022-08-27T16:06:08.787Z,6.85
2022-08-27T16:08:42.304Z,5.47
2022-08-27T16:11:14.056Z,6.95
2022-08-27T16:13:45.398Z,5.40
2022-08-27T16:16:22.579Z,7.80
2022-08-27T16:18:54.369Z,10.13
2022-08-27T16:21:25.706Z,6.25
2022-08-27T16:23:57.105Z,7.82
2022-08-27T16:26:28.661Z,4.68
2022-08-27T16:29:01.294Z,8.18
2022-08-27T16:31:34.815Z,6.97
2022-08-27T16:34:16.924Z,6.78
2022-08-27T16:36:48.322Z,7.60
2022-08-27T16:39:19.672Z,5.78
2022-08-27T16:41:51.246Z,7.55
2022-08-27T16:44:26.060Z,7.07
2022-08-27T16:46:57.613Z,3.87
2022-08-27T16:49:47.485Z,5.50
2022-08-27T16:52:23.456Z,8.13
2022-08-27T16:54:56.726Z,8.57
2022-08-27T16:57:28.104Z,5.18
2022-08-27T16:59:59.444Z,5.80
2022-08-27T17:02:34.811Z,5.80
2022-08-27T17:05:24.030Z,7.20
2022-08-27T17:07:59.386Z,8.25
2022-08-27T17:10:51.908Z,8.48
2022-08-27T17:13:28.261Z,10.52
2022-08-27T17:16:01.637Z,9.27
2022-08-27T17:18:34.788Z,8.88
2022-08-27T17:21:06.321Z,6.90
2022-08-27T17:23:41.211Z,9.95
2022-08-27T17:26:14.842Z,5.97
2022-08-27T17:28:46.280Z,10.45
2022-08-27T17:31:28.047Z,8.82
2022-08-27T17:34:01.219Z,10.43
2022-08-27T17:36:33.365Z,5.22
2022-08-27T17:39:04.746Z,8.70
2022-08-27T17:41:39.304Z,4.72
2022-08-27T17:44:31.904Z,7.20
2022-08-27T17:47:06.170Z,9.95
2022-08-27T17:49:37.972Z,12.68
2022-08-27T17:52:13.282Z,7.57
2022-08-27T17:54:48.001Z,6.43
2022-08-27T17:57:22.467Z,12.15
2022-08-27T17:59:54.663Z,9.80
2022-08-27T18:02:34.197Z,11.40
2022-08-27T18:05:09.929Z,6.90
2022-08-27T18:07:42.734Z,7.30
2022-08-27T18:10:17.507Z,21.00
2022-08-27T18:12:49.790Z,9.48
2022-08-27T18:15:25.261Z,10.48
2022-08-27T18:17:57.794Z,14.13
2022-08-27T18:20:30.629Z,11.80
2022-08-27T18:23:02.118Z,10.23
2022-08-27T18:25:36.334Z,12.82
2022-08-27T18:28:11.318Z,9.27
2022-08-27T18:30:44.622Z,8.20
2022-08-27T18:33:16.321Z,8.98
2022-08-27T18:35:47.689Z,13.68
2022-08-27T18:38:19.160Z,8.65
2022-08-27T18:40:51.777Z,10.65
2022-08-27T18:43:34.878Z,8.60
2022-08-27T18:46:07.083Z,8.57
2022-08-27T18:48:38.681Z,11.07
2022-08-27T18:51:13.935Z,8.50
2022-08-27T18:53:46.793Z,12.75
2022-08-27T18:56:19.561Z,10.80
2022-08-27T18:58:51.054Z,14.53
2022-08-27T19:01:26.278Z,9.57
2022-08-27T19:03:58.216Z,12.63
2022-08-27T19:06:29.937Z,7.57
2022-08-27T19:09:02.107Z,11.70
2022-08-27T19:11:33.474Z,10.40
2022-08-27T19:14:04.792Z,9.87
2022-08-27T19:16:45.851Z,10.10
2022-08-27T19:19:18.178Z,12.80
2022-08-27T19:21:51.699Z,10.97
2022-08-27T19:24:23.215Z,12.97
2022-08-27T19:26:54.891Z,10.07
2022-08-27T19:29:26.225Z,11.70
2022-08-27T19:34:28.999Z,15.17
2022-08-27T19:37:02.531Z,12.00
2022-08-27T19:39:36.527Z,8.37
2022-08-27T19:42:07.984Z,10.67
2022-08-27T19:44:39.474Z,11.80
2022-08-27T19:47:13.211Z,10.20
2022-08-27T19:49:49.589Z,12.40
2022-08-27T19:52:21.257Z,11.37
2022-08-27T19:55:12.518Z,7.70
2022-08-27T19:57:44.834Z,11.87
2022-08-27T20:00:19.326Z,10.40
2022-08-27T20:02:51.685Z,9.47
2022-08-27T20:05:23.211Z,11.30
2022-08-27T20:07:54.734Z,12.00
2022-08-27T20:10:36.725Z,13.17
2022-08-27T20:13:08.773Z,11.80
2022-08-27T20:15:40.666Z,13.07
2022-08-27T20:18:15.725Z,11.20
2022-08-27T20:20:47.218Z,8.15
2022-08-27T20:23:18.689Z,10.07
2022-08-27T20:25:52.230Z,10.10
2022-08-27T20:28:39.074Z,10.77
2022-08-27T20:31:11.495Z,9.80
2022-08-27T20:33:43.886Z,11.60
2022-08-27T20:36:15.578Z,12.33
2022-08-27T20:38:47.456Z,10.47
2022-08-27T20:41:19.092Z,12.13
2022-08-27T20:43:50.724Z,14.37
2022-08-27T20:46:27.093Z,10.33
2022-08-27T20:48:59.047Z,15.03
2022-08-27T20:51:30.498Z,9.27
2022-08-27T20:54:22.168Z,9.83
2022-08-27T20:56:53.863Z,11.83
2022-08-27T20:59:44.400Z,8.60
2022-08-27T21:02:22.189Z,11.00
2022-08-27T21:04:53.692Z,20.03
2022-08-27T21:07:25.283Z,10.93
2022-08-27T21:09:57.639Z,12.73
2022-08-27T21:12:30.895Z,12.17
2022-08-27T21:15:04.975Z,7.57
2022-08-27T21:17:36.645Z,14.50
2022-08-27T21:20:13.588Z,12.40
2022-08-27T21:22:45.076Z,15.90
2022-08-27T21:25:16.561Z,11.03
2022-08-27T21:27:47.940Z,11.67
2022-08-27T21:30:21.297Z,13.03
2022-08-27T21:32:56.358Z,13.90
2022-08-27T21:35:30.979Z,17.50
2022-08-27T21:38:02.428Z,12.73
2022-08-27T21:40:33.844Z,16.90
2022-08-27T21:43:05.267Z,9.07
2022-08-27T21:45:36.960Z,8.20
2022-08-27T21:48:08.641Z,10.60
2022-08-27T21:50:40.108Z,12.80
2022-08-27T21:53:11.614Z,10.20
2022-08-27T21:55:44.261Z,17.10
2022-08-27T21:58:15.746Z,14.30
2022-08-27T22:00:49.652Z,17.53
2022-08-27T22:03:22.664Z,14.87
2022-08-27T22:05:54.276Z,10.63
2022-08-27T22:08:26.345Z,13.50
2022-08-27T22:10:58.384Z,14.13
2022-08-27T22:13:29.938Z,15.27
2022-08-27T22:16:01.804Z,17.70
2022-08-27T22:18:33.760Z,16.43
2022-08-27T22:21:05.918Z,14.07
2022-08-27T22:23:37.447Z,10.20
2022-08-27T22:26:08.941Z,14.00
2022-08-27T22:28:40.588Z,14.03
2022-08-27T22:31:12.131Z,14.00
2022-08-27T22:33:43.639Z,10.33
2022-08-27T22:36:15.053Z,17.80
2022-08-27T22:38:46.600Z,12.13
2022-08-27T22:41:19.270Z,10.93
2022-08-27T22:43:56.681Z,14.07
2022-08-27T22:46:29.317Z,15.87
2022-08-27T22:49:01.028Z,12.83
2022-08-27T22:51:32.397Z,13.33
2022-08-27T22:54:03.894Z,12.13
2022-08-27T22:56:35.768Z,12.33
2022-08-27T22:59:07.544Z,15.30
2022-08-27T23:01:39.028Z,13.93
2022-08-27T23:04:11.183Z,12.37
2022-08-27T23:06:42.644Z,8.27
2022-08-27T23:09:14.047Z,13.13
2022-08-27T23:11:45.521Z,11.67
2022-08-27T23:14:16.987Z,11.17
2022-08-27T23:16:48.295Z,10.17
2022-08-27T23:19:19.830Z,13.33
2022-08-27T23:21:51.137Z,11.53
2022-08-27T23:24:22.515Z,13.27
2022-08-27T23:27:12.683Z,15.20
2022-08-27T23:29:46.991Z,8.67
2022-08-27T23:32:18.340Z,10.60
2022-08-27T23:34:49.899Z,16.27
2022-08-27T23:37:21.755Z,15.53
2022-08-27T23:39:53.863Z,16.20
2022-08-27T23:42:25.682Z,8.87
2022-08-27T23:44:57.304Z,7.53
2022-08-27T23:47:28.672Z,13.97
2022-08-27T23:50:00.488Z,12.33
2022-08-27T23:52:32.427Z,10.97
2022-08-27T23:55:05.207Z,11.13
2022-08-27T23:57:37.060Z,16.03
